Martin, Oklahoma
Current Conditions -  °F | °C
As of 9:53 AM on Friday 31 Oct 2014 (Local Time) from KMKO Reporting Station
Overcast Overcast  
Wind Chill: 50°   Ceiling: 2500
Heat Index: 50°   Visibility: 10mi
Dew Point: 41°   Wind: 17mph
Humidity: 71%   Direction: 360°N
Pressure: 30.39"   Gusts: NA
Location:  35.6818°N, 95.3578°W
Report Text: KMKO 311453Z AUTO 36015KT 10SM OVC025 10/05 A3039 RMK AO2 SLP288 T01000050 53027
Loading
Personal Weather Stations






























Interactive Weather Map
Tropical Storm Tracking
New forecast layout! Learn more

10-Day Weather Forecast

Advertisements
Track Severe Weather on mobile